Time;durP1;ratioP1;P1;durP2;ratioP2;P2;SDS_P1;SDS_P2;PMS_P1;PMS_P2;Temp;Humidity;BMP_temperature;BMP_pressure;BME280_temperature;BME280_humidity;BME280_pressure;Samples;Min_cycle;Max_cycle;Signal;HPM_P1;HPM_P2
2023/12/11 00:02:15;;;;;;;1.47;0.80;;;7.30;99.90;;;;;;4998407;28;20029;-86
2023/12/11 00:04:40;;;;;;;1.13;0.80;;;7.30;99.90;;;;;;4996720;28;20724;-85
2023/12/11 00:07:06;;;;;;;1.33;0.80;;;7.40;99.90;;;;;;4995150;28;20034;-85
2023/12/11 00:09:31;;;;;;;1.20;0.70;;;7.40;99.90;;;;;;4996725;28;20042;-86
2023/12/11 00:11:57;;;;;;;1.80;0.70;;;7.40;99.90;;;;;;4995596;28;20042;-85
2023/12/11 00:14:22;;;;;;;1.40;0.60;;;7.40;99.90;;;;;;4996051;28;20030;-85
2023/12/11 00:16:48;;;;;;;2.93;0.60;;;7.50;99.90;;;;;;4979534;28;20631;-85
2023/12/11 00:19:13;;;;;;;0.63;0.53;;;7.50;99.90;;;;;;4997024;28;20080;-87
2023/12/11 00:21:39;;;;;;;1.10;0.70;;;7.50;99.90;;;;;;4997331;28;20124;-86
2023/12/11 00:24:06;;;;;;;0.77;0.70;;;7.50;99.90;;;;;;4995587;28;20472;-86
2023/12/11 00:26:31;;;;;;;1.10;0.60;;;7.50;99.90;;;;;;4981808;28;20037;-87
2023/12/11 00:28:57;;;;;;;0.73;0.57;;;7.50;99.90;;;;;;5002298;28;20030;-86
2023/12/11 00:31:22;;;;;;;1.07;0.60;;;7.50;99.90;;;;;;5001360;28;20903;-85
2023/12/11 00:33:48;;;;;;;0.67;0.50;;;7.50;99.90;;;;;;5002070;28;20525;-85
2023/12/11 00:36:13;;;;;;;1.07;0.90;;;7.50;99.90;;;;;;4999460;28;20026;-86
2023/12/11 00:38:39;;;;;;;1.60;0.83;;;7.50;99.90;;;;;;5003154;28;20033;-87
2023/12/11 00:41:05;;;;;;;1.03;0.60;;;7.60;99.90;;;;;;5004025;28;20034;-85
2023/12/11 00:43:31;;;;;;;1.03;0.70;;;7.60;99.90;;;;;;5006879;28;20054;-85
2023/12/11 00:45:56;;;;;;;0.70;0.60;;;7.60;99.90;;;;;;5001723;28;20051;-85
2023/12/11 00:48:22;;;;;;;1.53;0.70;;;7.70;99.90;;;;;;5007287;28;20030;-86
2023/12/11 00:50:47;;;;;;;0.63;0.60;;;7.70;99.90;;;;;;5000475;28;20397;-86
2023/12/11 00:53:13;;;;;;;0.90;0.60;;;7.70;99.90;;;;;;5001160;28;20057;-85
2023/12/11 00:55:38;;;;;;;2.20;0.60;;;7.60;99.90;;;;;;5000210;28;21454;-85
2023/12/11 00:58:04;;;;;;;1.30;0.93;;;7.60;99.90;;;;;;4999072;28;21209;-85
2023/12/11 01:00:29;;;;;;;0.83;0.60;;;7.60;99.90;;;;;;4998653;28;20038;-85
2023/12/11 01:02:55;;;;;;;3.10;0.90;;;7.60;99.90;;;;;;4999596;28;20034;-85
2023/12/11 01:05:20;;;;;;;2.43;0.70;;;7.60;99.90;;;;;;5000459;28;20035;-85
2023/12/11 01:07:46;;;;;;;1.23;0.80;;;7.70;99.90;;;;;;4997382;28;20042;-85
2023/12/11 01:10:11;;;;;;;0.97;0.60;;;7.80;99.90;;;;;;5001080;28;20042;-85
2023/12/11 01:12:37;;;;;;;2.37;0.90;;;7.70;99.90;;;;;;5000508;28;20034;-86
2023/12/11 01:15:03;;;;;;;2.37;0.70;;;7.70;99.90;;;;;;5001267;28;20037;-85
2023/12/11 01:17:29;;;;;;;0.77;0.67;;;7.70;99.90;;;;;;5001364;28;20034;-85
2023/12/11 01:19:54;;;;;;;0.93;0.70;;;7.70;99.90;;;;;;4999082;28;20026;-85
2023/12/11 01:22:20;;;;;;;1.47;0.80;;;7.80;99.90;;;;;;4999767;28;20034;-85
2023/12/11 01:24:45;;;;;;;0.70;0.70;;;7.70;99.90;;;;;;4999538;28;20045;-86
2023/12/11 01:27:11;;;;;;;0.87;0.70;;;7.70;99.90;;;;;;5003639;28;20033;-85
2023/12/11 01:29:36;;;;;;;0.87;0.80;;;7.70;99.90;;;;;;5002305;28;20057;-85
2023/12/11 01:32:03;;;;;;;4.07;0.97;;;7.60;99.90;;;;;;5002581;28;20081;-85
2023/12/11 01:34:29;;;;;;;2.03;0.80;;;7.60;99.90;;;;;;5003423;28;20035;-85
2023/12/11 01:36:54;;;;;;;2.07;0.80;;;7.50;99.90;;;;;;5001531;28;20447;-86
2023/12/11 01:39:20;;;;;;;3.30;0.90;;;7.50;99.90;;;;;;5003085;28;20038;-85
2023/12/11 01:41:46;;;;;;;1.87;0.80;;;7.50;99.90;;;;;;5003565;28;20670;-86
2023/12/11 01:44:11;;;;;;;1.90;0.80;;;7.40;99.90;;;;;;5002794;28;20034;-86
2023/12/11 01:46:38;;;;;;;1.37;0.80;;;7.40;99.90;;;;;;5001893;28;20064;-85
2023/12/11 01:49:03;;;;;;;1.93;0.83;;;7.30;99.90;;;;;;5001534;28;20144;-85
2023/12/11 01:51:29;;;;;;;2.40;0.90;;;7.30;99.90;;;;;;5003022;28;20489;-85
2023/12/11 01:53:55;;;;;;;1.27;0.70;;;7.20;99.90;;;;;;5000064;28;21300;-86
2023/12/11 01:56:21;;;;;;;3.03;1.10;;;7.10;99.90;;;;;;5002491;28;20062;-85
2023/12/11 01:58:48;;;;;;;2.80;1.07;;;7.00;99.90;;;;;;5000693;28;20029;-85
2023/12/11 02:01:14;;;;;;;3.07;0.90;;;7.00;99.90;;;;;;5000180;28;20044;-85
2023/12/11 02:03:40;;;;;;;4.23;1.20;;;7.00;99.90;;;;;;5000263;28;20503;-86
2023/12/11 02:06:06;;;;;;;1.93;1.00;;;7.00;99.90;;;;;;5000702;28;20030;-86
2023/12/11 02:08:32;;;;;;;1.33;0.97;;;6.90;99.90;;;;;;4981920;28;20097;-86
2023/12/11 02:10:58;;;;;;;3.57;1.20;;;6.90;99.90;;;;;;4982427;28;21562;-85
2023/12/11 02:13:23;;;;;;;3.23;1.10;;;6.80;99.90;;;;;;4998895;28;20031;-86
2023/12/11 02:15:50;;;;;;;1.93;1.00;;;6.80;99.90;;;;;;5000872;28;20022;-86
2023/12/11 02:18:16;;;;;;;2.20;1.07;;;6.70;99.90;;;;;;5001451;28;20033;-85
2023/12/11 02:20:43;;;;;;;3.93;1.20;;;6.60;99.90;;;;;;5000831;28;20053;-85
2023/12/11 02:23:14;;;;;;;2.37;1.00;;;6.60;99.90;;;;;;4998655;28;20042;-86
2023/12/11 02:25:40;;;;;;;1.50;0.97;;;6.50;99.90;;;;;;4998243;28;20080;-85
2023/12/11 02:28:06;;;;;;;3.03;1.17;;;6.50;99.90;;;;;;4998613;28;20133;-85
2023/12/11 02:30:35;;;;;;;3.43;1.00;;;6.50;99.90;;;;;;4999565;28;20121;-85
2023/12/11 02:33:01;;;;;;;3.67;1.00;;;6.50;99.90;;;;;;4980603;28;20080;-87
2023/12/11 02:35:26;;;;;;;3.00;1.20;;;6.50;99.90;;;;;;4997498;28;20029;-84
2023/12/11 02:37:52;;;;;;;3.00;1.60;;;6.50;99.90;;;;;;4999305;28;20087;-84
2023/12/11 02:40:17;;;;;;;2.40;1.00;;;6.50;99.90;;;;;;4999066;28;20488;-84
2023/12/11 02:42:47;;;;;;;4.77;1.83;;;6.40;99.90;;;;;;4996332;28;20021;-85
2023/12/11 02:45:13;;;;;;;3.63;1.50;;;6.40;99.90;;;;;;4998550;28;20040;-84
2023/12/11 02:47:39;;;;;;;1.73;1.20;;;6.40;99.90;;;;;;5001808;28;20037;-84
2023/12/11 02:50:05;;;;;;;1.57;1.10;;;6.40;99.90;;;;;;5001015;28;20030;-84
2023/12/11 02:52:30;;;;;;;3.53;1.10;;;6.30;99.90;;;;;;5000348;28;20496;-83
2023/12/11 02:54:56;;;;;;;2.97;1.40;;;6.40;99.90;;;;;;5003212;28;20053;-84
2023/12/11 02:57:21;;;;;;;3.00;1.20;;;6.30;99.90;;;;;;5004411;28;20039;-84
2023/12/11 02:59:47;;;;;;;4.40;1.50;;;6.30;99.90;;;;;;5000330;28;20041;-85
2023/12/11 03:02:12;;;;;;;5.17;1.50;;;6.30;99.90;;;;;;5006153;28;20035;-84
2023/12/11 03:04:38;;;;;;;6.70;2.33;;;6.40;99.90;;;;;;4999888;28;20037;-84
2023/12/11 03:07:04;;;;;;;7.90;1.97;;;6.50;99.90;;;;;;4998816;28;20030;-84
2023/12/11 03:09:29;;;;;;;4.83;1.40;;;6.50;99.90;;;;;;4999679;28;20156;-86
2023/12/11 03:11:55;;;;;;;5.03;1.60;;;6.50;99.90;;;;;;5000601;28;20531;-84
2023/12/11 03:14:20;;;;;;;4.40;1.40;;;6.50;99.90;;;;;;5001155;28;20042;-85
2023/12/11 03:16:48;;;;;;;4.23;1.40;;;6.50;99.90;;;;;;5002434;28;21506;-84
2023/12/11 03:19:15;;;;;;;3.13;1.20;;;6.50;99.90;;;;;;5000188;28;20031;-84
2023/12/11 03:21:41;;;;;;;3.47;1.20;;;6.50;99.90;;;;;;4999490;28;20072;-83
2023/12/11 03:24:06;;;;;;;2.63;1.37;;;6.50;99.90;;;;;;5001092;28;20057;-83
2023/12/11 03:26:32;;;;;;;4.20;1.20;;;6.50;99.90;;;;;;4978036;28;20053;-84
2023/12/11 03:28:57;;;;;;;2.73;1.20;;;6.50;99.90;;;;;;5000228;28;20034;-84
2023/12/11 03:31:23;;;;;;;2.57;1.20;;;6.50;99.90;;;;;;5001297;28;20039;-84
2023/12/11 03:33:48;;;;;;;3.67;1.13;;;6.50;99.90;;;;;;5000417;28;20201;-84
2023/12/11 03:36:14;;;;;;;2.43;0.93;;;6.50;99.90;;;;;;5000637;28;20038;-84
2023/12/11 03:38:39;;;;;;;2.37;1.30;;;6.50;99.90;;;;;;4999754;28;20061;-84
2023/12/11 03:41:05;;;;;;;2.17;1.10;;;6.50;99.90;;;;;;4999875;28;20093;-84
2023/12/11 03:43:30;;;;;;;4.23;1.37;;;6.60;99.90;;;;;;4999072;28;20034;-84
2023/12/11 03:45:56;;;;;;;4.60;1.30;;;6.50;99.90;;;;;;4982789;28;20032;-84
2023/12/11 03:48:22;;;;;;;4.50;1.10;;;6.70;99.90;;;;;;5002361;28;20038;-84
2023/12/11 03:50:48;;;;;;;2.23;0.83;;;6.70;99.90;;;;;;5000284;28;20030;-84
2023/12/11 03:53:13;;;;;;;2.63;1.00;;;6.70;99.90;;;;;;4999920;28;20025;-84
2023/12/11 03:55:39;;;;;;;5.50;1.50;;;6.70;99.90;;;;;;5000756;28;21133;-85
2023/12/11 03:58:05;;;;;;;4.03;1.40;;;6.70;99.90;;;;;;5001449;28;20029;-84
2023/12/11 04:00:30;;;;;;;2.47;1.07;;;6.70;99.90;;;;;;5002915;28;20034;-85
2023/12/11 04:02:56;;;;;;;2.90;1.20;;;6.70;99.90;;;;;;5005174;28;20030;-83
2023/12/11 04:05:21;;;;;;;3.47;1.30;;;6.70;99.90;;;;;;5013157;28;20701;-84
2023/12/11 04:07:47;;;;;;;8.80;2.50;;;6.70;99.90;;;;;;5007121;28;20026;-84
2023/12/11 04:10:12;;;;;;;5.77;1.97;;;6.70;99.90;;;;;;5004234;28;20136;-84
2023/12/11 04:12:41;;;;;;;2.47;1.33;;;6.70;99.90;;;;;;5003818;28;20115;-84
2023/12/11 04:15:07;;;;;;;3.00;1.20;;;6.70;99.90;;;;;;5004848;28;20033;-84
2023/12/11 04:17:32;;;;;;;5.03;1.10;;;6.70;99.90;;;;;;5002226;28;21439;-83
2023/12/11 04:19:58;;;;;;;3.20;1.43;;;6.60;99.90;;;;;;4984952;28;20027;-83
2023/12/11 04:22:24;;;;;;;2.20;1.17;;;6.60;99.90;;;;;;5004062;28;20026;-83
2023/12/11 04:24:49;;;;;;;3.97;1.57;;;6.60;99.90;;;;;;5004690;28;20033;-84
2023/12/11 04:27:15;;;;;;;3.13;1.20;;;6.50;99.90;;;;;;5004675;28;20041;-83
2023/12/11 04:29:40;;;;;;;3.03;1.13;;;6.50;99.90;;;;;;5005078;28;20527;-84
2023/12/11 04:32:06;;;;;;;1.50;1.00;;;6.50;99.90;;;;;;5002778;28;20110;-83
2023/12/11 04:34:31;;;;;;;2.83;1.23;;;6.50;99.90;;;;;;5003880;28;20056;-84
2023/12/11 04:36:57;;;;;;;3.20;1.17;;;6.50;99.90;;;;;;5004490;28;20026;-83
2023/12/11 04:39:22;;;;;;;2.40;1.03;;;6.60;99.90;;;;;;5005996;28;20030;-84
2023/12/11 04:41:48;;;;;;;1.30;0.90;;;6.70;99.90;;;;;;5004785;28;20029;-83
2023/12/11 04:44:13;;;;;;;1.47;1.03;;;6.70;99.90;;;;;;5004937;28;20399;-84
2023/12/11 04:46:39;;;;;;;4.30;1.60;;;6.70;99.90;;;;;;5001677;28;20030;-84
2023/12/11 04:49:05;;;;;;;2.70;1.20;;;6.80;99.90;;;;;;5004205;28;20109;-84
2023/12/11 04:51:30;;;;;;;4.37;1.30;;;6.80;99.90;;;;;;5005832;28;20084;-84
2023/12/11 04:53:56;;;;;;;3.13;1.27;;;6.80;99.90;;;;;;5002008;28;20277;-83
2023/12/11 04:56:24;;;;;;;3.40;1.20;;;6.80;99.90;;;;;;5002457;28;20042;-83
2023/12/11 04:58:50;;;;;;;2.37;1.20;;;6.70;99.90;;;;;;5004310;28;20057;-84
2023/12/11 05:01:16;;;;;;;2.20;1.00;;;6.70;99.90;;;;;;5003635;28;20057;-83
2023/12/11 05:03:41;;;;;;;3.20;1.23;;;6.60;99.90;;;;;;5002909;28;20045;-84
2023/12/11 05:06:07;;;;;;;3.50;1.20;;;6.60;99.90;;;;;;5002780;28;20030;-84
2023/12/11 05:08:33;;;;;;;3.10;1.30;;;6.50;99.90;;;;;;5003050;28;20520;-83
2023/12/11 05:10:58;;;;;;;4.07;1.40;;;6.40;99.90;;;;;;5001332;28;20128;-84
2023/12/11 05:13:24;;;;;;;2.37;1.43;;;6.30;99.90;;;;;;5001490;28;20164;-84
2023/12/11 05:15:50;;;;;;;3.00;1.60;;;6.30;99.90;;;;;;5003141;28;20120;-85
2023/12/11 05:18:15;;;;;;;3.70;1.40;;;6.20;99.90;;;;;;5002898;28;20025;-84
2023/12/11 05:20:41;;;;;;;1.90;1.30;;;6.20;99.90;;;;;;5002867;28;20026;-84
2023/12/11 05:23:06;;;;;;;2.93;1.43;;;6.10;99.90;;;;;;5001348;28;20439;-83
2023/12/11 05:25:32;;;;;;;4.27;1.50;;;6.10;99.90;;;;;;5000786;28;20026;-84
2023/12/11 05:27:57;;;;;;;2.10;1.40;;;6.00;99.90;;;;;;5003873;28;20026;-84
2023/12/11 05:30:23;;;;;;;2.80;1.37;;;6.00;99.90;;;;;;4985468;28;20030;-84
2023/12/11 05:32:48;;;;;;;6.80;1.60;;;6.00;99.90;;;;;;5002832;28;20045;-84
2023/12/11 05:35:14;;;;;;;5.10;1.70;;;5.90;99.90;;;;;;5003640;28;20030;-84
2023/12/11 05:37:39;;;;;;;4.53;1.60;;;5.90;99.90;;;;;;5001757;28;20056;-84
2023/12/11 05:40:05;;;;;;;2.97;1.70;;;5.90;99.90;;;;;;5003352;28;20027;-84
2023/12/11 05:42:31;;;;;;;2.90;1.43;;;5.90;99.90;;;;;;5003891;28;20034;-84
2023/12/11 05:44:56;;;;;;;3.80;1.63;;;5.90;99.90;;;;;;5002939;28;20051;-84
2023/12/11 05:47:22;;;;;;;2.93;1.40;;;5.80;99.90;;;;;;5001838;28;20132;-84
2023/12/11 05:49:47;;;;;;;3.90;1.70;;;5.80;99.90;;;;;;5002192;28;20164;-84
2023/12/11 05:52:13;;;;;;;3.97;1.57;;;5.80;99.90;;;;;;5003022;28;20045;-83
2023/12/11 05:54:38;;;;;;;5.23;2.50;;;5.80;99.90;;;;;;5005657;28;20030;-83
2023/12/11 05:57:04;;;;;;;2.37;1.30;;;5.80;99.90;;;;;;5001729;28;20065;-82
2023/12/11 05:59:30;;;;;;;3.30;1.33;;;5.80;99.90;;;;;;4999095;28;20500;-81
2023/12/11 06:01:55;;;;;;;4.70;2.00;;;5.80;99.90;;;;;;4998880;28;20033;-83
2023/12/11 06:04:21;;;;;;;2.63;1.30;;;5.80;99.90;;;;;;5000116;28;20140;-81
2023/12/11 06:06:47;;;;;;;5.13;1.40;;;5.90;99.90;;;;;;5001443;28;20119;-82
2023/12/11 06:09:13;;;;;;;3.63;1.23;;;5.90;99.90;;;;;;4996759;28;20112;-82
2023/12/11 06:11:39;;;;;;;3.10;1.30;;;5.90;99.90;;;;;;5000047;28;20037;-81
2023/12/11 06:14:06;;;;;;;2.17;1.20;;;5.80;99.90;;;;;;4998747;28;20080;-81
2023/12/11 06:16:32;;;;;;;2.83;1.23;;;5.80;99.90;;;;;;4997996;28;20034;-83
2023/12/11 06:18:57;;;;;;;2.87;1.20;;;5.90;99.90;;;;;;4999924;28;20033;-81
2023/12/11 06:21:24;;;;;;;2.77;1.57;;;5.90;99.90;;;;;;5001842;28;20026;-82
2023/12/11 06:23:49;;;;;;;2.00;1.30;;;6.00;99.90;;;;;;4998053;28;20073;-82
2023/12/11 06:26:31;;;;;;;2.37;1.30;;;6.00;99.90;;;;;;5000539;28;20060;-81
2023/12/11 06:28:59;;;;;;;4.03;2.13;;;6.00;99.90;;;;;;4994941;28;20037;-82
2023/12/11 06:31:25;;;;;;;4.43;1.70;;;5.90;99.90;;;;;;5000634;28;20035;-80
2023/12/11 06:33:51;;;;;;;2.53;1.60;;;5.90;99.90;;;;;;5007657;28;20097;-80
2023/12/11 06:36:16;;;;;;;2.50;1.30;;;5.90;99.90;;;;;;5006531;28;20033;-80
2023/12/11 06:38:42;;;;;;;3.80;1.70;;;5.80;99.90;;;;;;5006512;28;20034;-81
2023/12/11 06:41:07;;;;;;;4.07;2.60;;;5.80;99.90;;;;;;5005687;28;20029;-81
2023/12/11 06:43:35;;;;;;;14.93;9.63;;;5.80;99.90;;;;;;5003204;28;20088;-80
2023/12/11 06:46:01;;;;;;;27.80;15.23;;;5.90;99.90;;;;;;4981233;28;20470;-80
2023/12/11 06:48:26;;;;;;;11.50;7.10;;;5.90;99.90;;;;;;5000739;28;20030;-80
2023/12/11 06:50:53;;;;;;;5.57;2.73;;;5.90;99.90;;;;;;5004580;28;20059;-80
2023/12/11 06:53:19;;;;;;;2.07;1.57;;;5.90;99.90;;;;;;4986211;28;20045;-81
2023/12/11 06:55:44;;;;;;;1.80;1.20;;;6.00;99.90;;;;;;5003292;28;20033;-80
2023/12/11 06:58:10;;;;;;;2.60;1.10;;;6.10;99.90;;;;;;5003675;28;20041;-79
2023/12/11 07:00:35;;;;;;;3.60;1.20;;;6.20;99.90;;;;;;5004068;28;20029;-80
2023/12/11 07:03:01;;;;;;;2.23;1.57;;;6.20;99.90;;;;;;4985959;28;20022;-80
2023/12/11 07:05:27;;;;;;;3.13;1.30;;;6.30;99.90;;;;;;5003711;28;20670;-80
2023/12/11 07:07:52;;;;;;;2.97;1.00;;;6.30;99.90;;;;;;5002991;28;20041;-80
2023/12/11 07:10:18;;;;;;;1.40;1.00;;;6.30;99.90;;;;;;5006698;28;20030;-79
2023/12/11 07:12:45;;;;;;;2.60;1.03;;;6.30;99.90;;;;;;5003704;28;20030;-80
2023/12/11 07:15:11;;;;;;;1.43;1.00;;;6.40;99.90;;;;;;5003296;28;20038;-80
2023/12/11 07:17:37;;;;;;;3.20;1.10;;;6.50;99.90;;;;;;5003433;28;20117;-81
2023/12/11 07:20:04;;;;;;;2.83;1.30;;;6.50;99.90;;;;;;5002240;28;20089;-81
2023/12/11 07:22:31;;;;;;;2.90;1.37;;;6.50;99.90;;;;;;5002283;28;21001;-81
2023/12/11 07:24:56;;;;;;;1.47;1.20;;;6.60;99.90;;;;;;4999915;28;20026;-81
2023/12/11 07:27:22;;;;;;;2.80;1.17;;;6.60;99.90;;;;;;4997233;28;20080;-81
2023/12/11 07:29:47;;;;;;;2.77;1.30;;;6.70;99.90;;;;;;5004762;28;20103;-83
2023/12/11 07:32:13;;;;;;;1.93;1.40;;;6.70;99.90;;;;;;5001610;28;20025;-82
2023/12/11 07:34:38;;;;;;;2.97;1.40;;;6.80;99.90;;;;;;5000370;28;20050;-82
2023/12/11 07:37:04;;;;;;;4.23;1.40;;;6.90;99.90;;;;;;5002028;28;20030;-82
2023/12/11 07:39:30;;;;;;;2.90;1.50;;;6.90;99.90;;;;;;5000848;28;20029;-80
2023/12/11 07:41:55;;;;;;;2.20;1.30;;;6.90;99.90;;;;;;4993063;28;20056;-87
2023/12/11 07:44:22;;;;;;;2.57;1.20;;;7.00;99.90;;;;;;4972914;28;20060;-88
2023/12/11 07:46:47;;;;;;;2.00;1.10;;;7.00;99.90;;;;;;4989978;28;20038;-88
2023/12/11 07:49:13;;;;;;;1.63;1.00;;;7.00;99.90;;;;;;4989417;28;20034;-85
2023/12/11 07:51:39;;;;;;;2.77;1.07;;;7.10;99.90;;;;;;4989762;28;20045;-86
2023/12/11 07:54:05;;;;;;;1.90;1.10;;;7.20;99.90;;;;;;4989950;28;20028;-86
2023/12/11 07:56:30;;;;;;;2.83;1.03;;;7.30;99.90;;;;;;4994839;28;20048;-89
2023/12/11 07:58:56;;;;;;;1.60;0.90;;;7.40;99.90;;;;;;4991381;28;20116;-87
2023/12/11 08:01:21;;;;;;;1.43;0.97;;;7.60;99.90;;;;;;4991268;28;20061;-86
2023/12/11 08:03:47;;;;;;;1.93;0.90;;;7.60;99.90;;;;;;4989842;28;20061;-85
2023/12/11 08:06:15;;;;;;;1.50;1.00;;;7.70;99.90;;;;;;4987569;28;20033;-83
2023/12/11 08:08:43;;;;;;;2.43;1.30;;;7.70;99.90;;;;;;4989054;28;20088;-83
2023/12/11 08:11:25;;;;;;;1.80;1.23;;;7.80;99.90;;;;;;4987598;28;20034;-87
2023/12/11 08:13:50;;;;;;;2.10;1.23;;;7.80;99.90;;;;;;4987144;28;20052;-87
2023/12/11 08:16:16;;;;;;;1.80;1.23;;;7.80;99.90;;;;;;4987089;28;20038;-84
2023/12/11 08:18:43;;;;;;;1.57;1.07;;;7.80;99.90;;;;;;4987230;28;20042;-84
2023/12/11 08:21:09;;;;;;;2.33;1.27;;;7.70;99.90;;;;;;4988638;28;20081;-85
2023/12/11 08:23:34;;;;;;;2.27;1.43;;;7.70;99.90;;;;;;4988264;28;20516;-85
2023/12/11 08:26:00;;;;;;;2.97;1.83;;;7.70;99.90;;;;;;4987783;28;20030;-85
2023/12/11 08:28:26;;;;;;;4.13;1.93;;;7.60;99.90;;;;;;4989450;28;20033;-85
2023/12/11 08:30:51;;;;;;;6.37;1.83;;;7.60;99.90;;;;;;4990481;28;20034;-84
2023/12/11 08:33:17;;;;;;;3.17;2.10;;;7.60;99.90;;;;;;4988246;28;20034;-84
2023/12/11 08:35:43;;;;;;;3.67;2.10;;;7.60;99.90;;;;;;4985763;28;20193;-83
2023/12/11 08:38:09;;;;;;;5.87;1.80;;;7.60;99.90;;;;;;4988302;28;20045;-85
2023/12/11 08:40:35;;;;;;;3.53;1.77;;;7.60;99.90;;;;;;4988372;28;20034;-86
2023/12/11 08:43:00;;;;;;;4.43;2.13;;;7.60;99.90;;;;;;4988416;28;20026;-83
2023/12/11 08:45:26;;;;;;;3.87;2.20;;;7.60;99.90;;;;;;4987955;28;20030;-87
2023/12/11 08:47:51;;;;;;;5.07;2.60;;;7.60;99.90;;;;;;4991332;28;20042;-89
2023/12/11 08:50:17;;;;;;;6.27;2.77;;;7.60;99.90;;;;;;4990795;28;20049;-84
2023/12/11 08:52:44;;;;;;;4.43;1.80;;;7.70;99.90;;;;;;4991542;28;20038;-86
2023/12/11 08:55:10;;;;;;;9.97;2.77;;;7.70;99.90;;;;;;4989256;28;20034;-84
2023/12/11 08:57:36;;;;;;;5.37;2.23;;;7.70;99.90;;;;;;4990846;28;20037;-85
2023/12/11 09:00:05;;;;;;;3.37;1.60;;;7.80;99.90;;;;;;4990869;28;20048;-88
2023/12/11 09:02:31;;;;;;;4.93;2.40;;;7.80;99.90;;;;;;4991988;28;20034;-89
2023/12/11 09:04:56;;;;;;;3.83;2.07;;;7.80;99.90;;;;;;4989609;28;20037;-87
2023/12/11 09:07:22;;;;;;;5.03;2.20;;;7.90;99.90;;;;;;4990166;28;20030;-85
2023/12/11 09:09:47;;;;;;;5.77;2.10;;;7.90;99.90;;;;;;4991376;28;20108;-84
2023/12/11 09:12:14;;;;;;;3.27;1.60;;;7.90;99.90;;;;;;4991720;28;21921;-85
2023/12/11 09:14:39;;;;;;;4.00;1.27;;;8.00;99.90;;;;;;4990299;28;20030;-87
2023/12/11 09:17:05;;;;;;;4.23;1.67;;;8.00;99.90;;;;;;4988708;28;20037;-86
2023/12/11 09:19:31;;;;;;;2.87;1.20;;;8.10;99.90;;;;;;4973731;28;20080;-86
2023/12/11 09:21:56;;;;;;;2.70;1.67;;;8.10;99.90;;;;;;4993348;28;20030;-87
2023/12/11 09:24:22;;;;;;;2.90;1.30;;;8.20;99.90;;;;;;4993465;28;20045;-84
2023/12/11 09:26:47;;;;;;;2.93;1.53;;;8.20;99.90;;;;;;4992535;28;20042;-83
2023/12/11 09:29:13;;;;;;;7.73;3.63;;;8.30;99.90;;;;;;4991000;28;20910;-85
2023/12/11 09:31:38;;;;;;;4.77;2.10;;;8.30;99.90;;;;;;4973270;28;20041;-86
2023/12/11 09:34:04;;;;;;;2.50;1.27;;;8.40;99.90;;;;;;4992469;28;20079;-85
2023/12/11 09:36:29;;;;;;;2.03;1.30;;;8.40;99.90;;;;;;4989747;28;20038;-84
2023/12/11 09:38:58;;;;;;;3.77;2.63;;;8.40;99.90;;;;;;4991340;28;20041;-86
2023/12/11 09:41:33;;;;;;;2.70;2.03;;;8.50;99.90;;;;;;4990080;28;20152;-85
2023/12/11 09:44:03;;;;;;;3.77;2.47;;;8.50;99.90;;;;;;4991363;28;20057;-86
2023/12/11 09:46:38;;;;;;;1.70;1.20;;;8.40;99.90;;;;;;4991896;28;20030;-85
2023/12/11 09:49:05;;;;;;;2.58;1.67;;;8.50;99.90;;;;;;4992727;28;20029;-86
2023/12/11 09:51:32;;;;;;;5.87;1.40;;;8.60;99.90;;;;;;4992468;28;20040;-83
2023/12/11 09:53:57;;;;;;;2.20;1.37;;;8.60;99.90;;;;;;4992497;28;20124;-87
2023/12/11 09:56:24;;;;;;;1.27;0.90;;;8.70;99.90;;;;;;4990516;28;20029;-88
2023/12/11 09:58:50;;;;;;;1.87;1.03;;;8.80;99.90;;;;;;4991472;28;20053;-84
2023/12/11 10:01:17;;;;;;;2.63;1.03;;;8.80;99.90;;;;;;4991935;28;20040;-83
2023/12/11 10:03:43;;;;;;;1.40;0.90;;;8.80;99.90;;;;;;4991695;28;20083;-83
2023/12/11 10:06:08;;;;;;;3.43;1.10;;;8.90;99.90;;;;;;4990763;28;20045;-85
2023/12/11 10:08:44;;;;;;;2.43;1.10;;;9.00;99.90;;;;;;4991322;28;20034;-84
2023/12/11 10:11:11;;;;;;;2.43;1.00;;;9.00;99.90;;;;;;4990876;28;20112;-83
2023/12/11 10:13:37;;;;;;;4.40;1.40;;;9.10;99.90;;;;;;4990340;28;20042;-86
2023/12/11 10:16:03;;;;;;;1.10;1.00;;;9.10;99.90;;;;;;4988050;28;20022;-85
2023/12/11 10:18:29;;;;;;;1.27;1.00;;;9.10;99.90;;;;;;4988674;28;20037;-84
2023/12/11 10:20:57;;;;;;;1.63;1.13;;;9.00;99.90;;;;;;4989405;28;20034;-84
2023/12/11 10:23:23;;;;;;;4.23;1.93;;;9.00;99.90;;;;;;4989561;28;20044;-83
2023/12/11 10:25:54;;;;;;;3.23;1.60;;;9.00;99.90;;;;;;4987871;28;20041;-85
2023/12/11 10:28:22;;;;;;;1.30;1.10;;;9.00;99.90;;;;;;4990478;28;20036;-85
2023/12/11 10:31:01;;;;;;;2.40;1.10;;;8.90;99.90;;;;;;4987251;28;20038;-83
2023/12/11 10:33:31;;;;;;;1.43;1.10;;;8.90;99.90;;;;;;4989457;28;20068;-85
2023/12/11 10:36:12;;;;;;;1.63;1.00;;;8.90;99.90;;;;;;4991586;28;20151;-85
2023/12/11 10:38:38;;;;;;;1.43;1.17;;;8.90;99.90;;;;;;4990759;28;20021;-84
2023/12/11 10:41:05;;;;;;;1.03;0.80;;;8.90;99.90;;;;;;4991234;28;20125;-85
2023/12/11 10:43:40;;;;;;;1.60;1.07;;;8.90;99.90;;;;;;4973123;28;20173;-84
2023/12/11 10:46:06;;;;;;;2.05;1.08;;;8.90;99.90;;;;;;4990010;28;21018;-85
2023/12/11 10:48:34;;;;;;;1.60;1.00;;;8.90;99.90;;;;;;4988750;28;20038;-84
2023/12/11 10:51:02;;;;;;;1.20;0.90;;;8.90;99.90;;;;;;4991564;28;20026;-85
2023/12/11 10:53:28;;;;;;;1.50;1.00;;;8.90;99.90;;;;;;4992365;28;20160;-85
2023/12/11 10:55:56;;;;;;;1.47;0.90;;;9.00;99.90;;;;;;4987791;28;20839;-84
2023/12/11 10:58:22;;;;;;;1.17;0.80;;;9.00;99.90;;;;;;4990291;28;20144;-83
2023/12/11 11:00:47;;;;;;;1.00;0.80;;;9.10;99.90;;;;;;4990194;28;20128;-83
2023/12/11 11:03:13;;;;;;;2.30;0.90;;;9.10;99.90;;;;;;4989768;28;21590;-85
2023/12/11 11:05:40;;;;;;;1.03;0.80;;;9.10;99.90;;;;;;4989833;28;20756;-83
2023/12/11 11:08:29;;;;;;;1.40;0.90;;;9.20;99.90;;;;;;4993361;28;20579;-80
2023/12/11 11:11:09;;;;;;;1.20;0.90;;;9.20;99.90;;;;;;4999293;28;20030;-79
2023/12/11 11:14:02;;;;;;;2.60;0.90;;;9.20;99.90;;;;;;4998749;28;20049;-80
2023/12/11 11:16:54;;;;;;;1.17;0.90;;;9.20;99.90;;;;;;4981740;28;20042;-79
2023/12/11 11:19:20;;;;;;;2.97;1.00;;;9.20;99.90;;;;;;4997596;28;20038;-80
2023/12/11 11:22:03;;;;;;;2.20;0.87;;;9.30;99.90;;;;;;5009798;28;20060;-81
2023/12/11 11:24:29;;;;;;;0.87;0.60;;;9.20;99.90;;;;;;4989620;28;20033;-80
2023/12/11 11:26:56;;;;;;;1.30;0.90;;;9.20;99.90;;;;;;4988064;28;20026;-80
2023/12/11 11:29:51;;;;;;;1.67;0.97;;;9.20;99.90;;;;;;5008965;28;20764;-81
2023/12/11 11:32:18;;;;;;;3.00;1.97;;;9.20;99.90;;;;;;4989546;28;20046;-83
2023/12/11 11:34:44;;;;;;;1.30;0.93;;;9.10;99.90;;;;;;5007166;28;20022;-79
2023/12/11 11:37:21;;;;;;;0.73;0.63;;;9.10;99.90;;;;;;5004767;28;20054;-81
2023/12/11 11:40:03;;;;;;;0.80;0.77;;;9.20;99.90;;;;;;5010111;28;20041;-80
2023/12/11 11:42:31;;;;;;;0.97;0.90;;;9.20;99.90;;;;;;5009470;28;20026;-80
2023/12/11 11:44:58;;;;;;;4.20;0.90;;;9.20;99.90;;;;;;5007337;28;20156;-80
2023/12/11 11:47:27;;;;;;;0.90;0.77;;;9.20;99.90;;;;;;5008702;28;20030;-80
2023/12/11 11:49:55;;;;;;;1.10;0.77;;;9.20;99.90;;;;;;4992859;28;20030;-79
2023/12/11 11:52:27;;;;;;;0.97;0.77;;;9.20;99.90;;;;;;4998959;28;20057;-80
2023/12/11 11:54:59;;;;;;;0.83;0.73;;;9.10;99.90;;;;;;4999016;28;20094;-81
2023/12/11 11:57:28;;;;;;;1.57;0.90;;;9.10;99.90;;;;;;4999503;28;20137;-81
2023/12/11 11:59:54;;;;;;;1.60;0.90;;;9.00;99.90;;;;;;4997901;28;20393;-81
2023/12/11 12:02:24;;;;;;;1.53;1.00;;;9.00;99.90;;;;;;4998812;28;20124;-81
2023/12/11 12:04:50;;;;;;;1.20;0.80;;;9.00;99.90;;;;;;4981853;28;20368;-80
2023/12/11 12:07:15;;;;;;;0.93;0.70;;;9.00;99.90;;;;;;4999836;28;20037;-80
2023/12/11 12:09:52;;;;;;;0.60;0.60;;;9.00;99.90;;;;;;4998719;28;20038;-80
2023/12/11 12:12:18;;;;;;;2.10;0.73;;;8.90;99.90;;;;;;4998702;28;20084;-81
2023/12/11 12:14:44;;;;;;;2.07;0.67;;;8.90;99.90;;;;;;4999436;28;20030;-80
2023/12/11 12:17:10;;;;;;;4.00;0.90;;;8.90;99.90;;;;;;4980615;28;20066;-81
2023/12/11 12:19:37;;;;;;;1.50;0.73;;;8.90;99.90;;;;;;4999297;28;20030;-81
2023/12/11 12:22:03;;;;;;;0.60;0.60;;;8.80;99.90;;;;;;5003996;28;20044;-82
2023/12/11 12:24:29;;;;;;;0.80;0.70;;;8.80;99.90;;;;;;5002394;28;20037;-81
2023/12/11 12:26:55;;;;;;;0.73;0.60;;;8.80;99.90;;;;;;5002866;28;20510;-82
2023/12/11 12:29:21;;;;;;;1.10;0.70;;;8.70;99.90;;;;;;5001771;28;20038;-82
2023/12/11 12:31:46;;;;;;;0.60;0.60;;;8.70;99.90;;;;;;5003496;28;20077;-82
2023/12/11 12:34:13;;;;;;;0.80;0.60;;;8.80;99.90;;;;;;5008043;28;20044;-81
2023/12/11 12:36:40;;;;;;;1.73;0.60;;;8.70;99.90;;;;;;5007078;28;20616;-82
2023/12/11 12:39:06;;;;;;;1.10;0.60;;;8.70;99.90;;;;;;5005274;28;20040;-81
2023/12/11 12:41:32;;;;;;;2.70;1.63;;;8.70;99.90;;;;;;5003680;28;20054;-82
2023/12/11 12:43:59;;;;;;;1.87;1.47;;;8.70;99.90;;;;;;4985908;28;20065;-81
2023/12/11 12:46:26;;;;;;;2.00;1.37;;;8.80;99.90;;;;;;5004674;28;20049;-82
2023/12/11 12:48:52;;;;;;;3.63;2.37;;;8.80;99.90;;;;;;4984331;28;20041;-81
2023/12/11 12:51:17;;;;;;;2.77;1.77;;;8.80;99.90;;;;;;5005440;28;20027;-82
2023/12/11 12:54:03;;;;;;;2.17;1.77;;;8.80;99.90;;;;;;5006451;28;20022;-82
2023/12/11 12:56:29;;;;;;;4.30;1.60;;;8.80;99.90;;;;;;5001216;28;20038;-81